Caddo River (Arkansas), Caddo Gap (07359610)

StateArkansasLatestHigh (354 cfs)
RiverCaddo RiverRatingObservedEstimated
Updated2020-02-25 22:45 (14 minutes ago)Flood - The river is flooding. Obstacles can be treacherous or deadly. The river should be avoided at this stage for casual trips and definitely for the inexperienced. Trips should be attempted only with protective gear and equipment.Flood(none)916
Discharge354 cfs (median: 227 cfs)High - The river is high and potentially dangerous, especially for the young and / or inexperienced. Normal stream obstacles are sometimes difficult to navigate. Extended distances can be attempted, but canoe travel may not be advisable.High(none)314
Height6.01 feetGood - Conditions are ideal for a canoe or kayak. Boats typically will drag on fewer than one-quarter of riffles, if at all, and portages are unnecessary or rare. Normal float lengths can be attempted without a problem.Good(none)164
TrendRising (falling over 24 hours)Low - River is low but can still be floated. Some riffles are okay but most come with significant dragging and might need a portage. Float lengths should be reduced to accommodate low flow, dragging, and portages.Low(none)104
USGSExternal icon USGS Site (External icon Google Maps)Poor - River is too low to float comfortably. Most or all riffles will drag or must be portaged and some obstacles (such as slick shelf rock) cause undue problems. Avoid the river at this stage for casual paddling trips.Poor(none)47

Trending Data

Plot Image

Trips for Caddo River (Arkansas), Caddo Gap (07359610)

DateStartEndDistanceConditionDischargeHeightFishingDetails
Click for details2017-11-12 Glenwood Caddo River Cabins Total trip distance: 3.3 miles3.3 Good 40 4.84 Fair KSB
LMB
SMB
KSB, LMB, SMB
Fillmore, Brian
Fillmore, Rebecca
Fillmore, Vivien
Javorsek, Rachel
Fillmore, Brian; Fillmore, Rebecca; Fillmore, Vivien; Javorsek, Rachel
Vivien's maiden voyage!Vivien's maiden voyage! USGS Gauge Data:
Caddo Gap (07359610)
Discharge: 40
Height: 4.84
<b>USGS Gauge Data:</b></br />Caddo Gap (07359610)<br />Discharge: 40<br />Height: 4.84
Source: FillmoreSource: Fillmore

A total of 1 rows are displayed.

Trip Summary for Caddo River (Arkansas), Caddo Gap (07359610)

Miles3.3
Trips1
People4
Dates1
Years1
Months1
Rows1
Sources1

Condition Descriptions

Fishing Conditions

Fish Species

Notes

Classic Trip List

The classic River Trips application is still available for use. It is updated with the new system using a data retrofit. It is no longer maintained. The original River Trips application is no longer updated (as of 1 Dec 2016) but can be checked for errors or for the condition of the data before it was converted to the new system.

Gauge Data Table

ObservationHeightDischargeMaximum
Discharge
Minimum
Discharge
Mean
Discharge
P05P10P20P25P50
(Median)
P75P80P90P95
2020-02-25 22:45 6.01 354 1180 (1993) 67 (1995) 311 87 108 129 159 227 403 443 527 1030
2020-02-25 21:45 6.00 347 1180 (1993) 67 (1995) 311 87 108 129 159 227 403 443 527 1030
2020-02-25 20:45 6.00 347 1180 (1993) 67 (1995) 311 87 108 129 159 227 403 443 527 1030
2020-02-25 19:45 5.99 340 1180 (1993) 67 (1995) 311 87 108 129 159 227 403 443 527 1030
2020-02-25 18:45 6.00 347 1180 (1993) 67 (1995) 311 87 108 129 159 227 403 443 527 1030
2020-02-25 17:45 5.98 333 1180 (1993) 67 (1995) 311 87 108 129 159 227 403 443 527 1030
2020-02-25 16:45 6.02 362 1180 (1993) 67 (1995) 311 87 108 129 159 227 403 443 527 1030
2020-02-25 15:45 6.01 354 1180 (1993) 67 (1995) 311 87 108 129 159 227 403 443 527 1030
2020-02-25 14:45 6.04 377 1180 (1993) 67 (1995) 311 87 108 129 159 227 403 443 527 1030
2020-02-25 13:45 6.04 377 1180 (1993) 67 (1995) 311 87 108 129 159 227 403 443 527 1030
2020-02-25 12:45 6.07 400 1180 (1993) 67 (1995) 311 87 108 129 159 227 403 443 527 1030
2020-02-25 11:45 6.08 408 1180 (1993) 67 (1995) 311 87 108 129 159 227 403 443 527 1030
2020-02-25 10:45 6.06 393 1180 (1993) 67 (1995) 311 87 108 129 159 227 403 443 527 1030
2020-02-25 09:45 6.09 417 1180 (1993) 67 (1995) 311 87 108 129 159 227 403 443 527 1030
2020-02-25 08:45 6.10 425 1180 (1993) 67 (1995) 311 87 108 129 159 227 403 443 527 1030
2020-02-25 07:45 6.07 400 1180 (1993) 67 (1995) 311 87 108 129 159 227 403 443 527 1030
2020-02-25 06:45 6.12 442 1180 (1993) 67 (1995) 311 87 108 129 159 227 403 443 527 1030
2020-02-25 05:45 6.12 442 1180 (1993) 67 (1995) 311 87 108 129 159 227 403 443 527 1030
2020-02-25 04:45 6.12 442 1180 (1993) 67 (1995) 311 87 108 129 159 227 403 443 527 1030
2020-02-25 03:45 6.15 467 1180 (1993) 67 (1995) 311 87 108 129 159 227 403 443 527 1030
2020-02-25 02:45 6.17 485 1180 (1993) 67 (1995) 311 87 108 129 159 227 403 443 527 1030
2020-02-25 01:45 6.14 459 1180 (1993) 67 (1995) 311 87 108 129 159 227 403 443 527 1030
2020-02-25 00:45 6.15 467 1180 (1993) 67 (1995) 311 87 108 129 159 227 403 443 527 1030
2020-02-24 23:45 6.14 459 702 (2007) 69 (1995) 297 79 116 127 153 249 430 452 571 700
2020-02-24 22:45 6.20 513 702 (2007) 69 (1995) 297 79 116 127 153 249 430 452 571 700
2020-02-24 21:45 6.21 522 702 (2007) 69 (1995) 297 79 116 127 153 249 430 452 571 700
2020-02-24 20:45 6.20 513 702 (2007) 69 (1995) 297 79 116 127 153 249 430 452 571 700
2020-02-24 19:45 6.22 532 702 (2007) 69 (1995) 297 79 116 127 153 249 430 452 571 700
2020-02-24 18:45 6.22 532 702 (2007) 69 (1995) 297 79 116 127 153 249 430 452 571 700
2020-02-24 17:45 6.23 541 702 (2007) 69 (1995) 297 79 116 127 153 249 430 452 571 700
2020-02-24 16:45 6.26 571 702 (2007) 69 (1995) 297 79 116 127 153 249 430 452 571 700
2020-02-24 15:45 6.32 633 702 (2007) 69 (1995) 297 79 116 127 153 249 430 452 571 700
2020-02-24 14:45 6.32 633 702 (2007) 69 (1995) 297 79 116 127 153 249 430 452 571 700
2020-02-24 13:45 6.33 642 702 (2007) 69 (1995) 297 79 116 127 153 249 430 452 571 700
2020-02-24 12:45 6.37 678 702 (2007) 69 (1995) 297 79 116 127 153 249 430 452 571 700
2020-02-24 11:45 6.30 612 702 (2007) 69 (1995) 297 79 116 127 153 249 430 452 571 700
2020-02-24 10:45 6.37 678 702 (2007) 69 (1995) 297 79 116 127 153 249 430 452 571 700
2020-02-24 09:45 6.33 642 702 (2007) 69 (1995) 297 79 116 127 153 249 430 452 571 700
2020-02-24 08:45 6.32 633 702 (2007) 69 (1995) 297 79 116 127 153 249 430 452 571 700
2020-02-24 07:45 6.35 660 702 (2007) 69 (1995) 297 79 116 127 153 249 430 452 571 700
2020-02-24 06:45 6.34 651 702 (2007) 69 (1995) 297 79 116 127 153 249 430 452 571 700
2020-02-24 05:45 6.24 551 702 (2007) 69 (1995) 297 79 116 127 153 249 430 452 571 700
2020-02-24 04:45 6.18 494 702 (2007) 69 (1995) 297 79 116 127 153 249 430 452 571 700
2020-02-24 03:45 6.14 459 702 (2007) 69 (1995) 297 79 116 127 153 249 430 452 571 700
2020-02-24 02:45 6.08 408 702 (2007) 69 (1995) 297 79 116 127 153 249 430 452 571 700
2020-02-24 01:45 6.03 369 702 (2007) 69 (1995) 297 79 116 127 153 249 430 452 571 700
2020-02-24 00:45 5.97 327 702 (2007) 69 (1995) 297 79 116 127 153 249 430 452 571 700
2020-02-23 23:45 5.93 310 1370 (1994) 72 (1995) 326 74 91 125 143 241 441 544 689 1120
2020-02-23 22:45 5.93 310 1370 (1994) 72 (1995) 326 74 91 125 143 241 441 544 689 1120
2020-02-23 21:45 5.92 306 1370 (1994) 72 (1995) 326 74 91 125 143 241 441 544 689 1120
2020-02-23 20:45 5.93 310 1370 (1994) 72 (1995) 326 74 91 125 143 241 441 544 689 1120
2020-02-23 19:45 5.92 306 1370 (1994) 72 (1995) 326 74 91 125 143 241 441 544 689 1120
2020-02-23 18:45 5.93 310 1370 (1994) 72 (1995) 326 74 91 125 143 241 441 544 689 1120
2020-02-23 17:45 5.93 310 1370 (1994) 72 (1995) 326 74 91 125 143 241 441 544 689 1120
2020-02-23 16:45 5.95 318 1370 (1994) 72 (1995) 326 74 91 125 143 241 441 544 689 1120
2020-02-23 15:45 5.91 303 1370 (1994) 72 (1995) 326 74 91 125 143 241 441 544 689 1120
2020-02-23 14:45 5.94 314 1370 (1994) 72 (1995) 326 74 91 125 143 241 441 544 689 1120
2020-02-23 13:45 5.94 314 1370 (1994) 72 (1995) 326 74 91 125 143 241 441 544 689 1120
2020-02-23 12:45 5.96 322 1370 (1994) 72 (1995) 326 74 91 125 143 241 441 544 689 1120
2020-02-23 11:45 5.96 322 1370 (1994) 72 (1995) 326 74 91 125 143 241 441 544 689 1120
2020-02-23 10:45 5.98 333 1370 (1994) 72 (1995) 326 74 91 125 143 241 441 544 689 1120
2020-02-23 09:45 5.93 310 1370 (1994) 72 (1995) 326 74 91 125 143 241 441 544 689 1120
2020-02-23 08:45 5.96 322 1370 (1994) 72 (1995) 326 74 91 125 143 241 441 544 689 1120
2020-02-23 07:45 5.97 327 1370 (1994) 72 (1995) 326 74 91 125 143 241 441 544 689 1120
2020-02-23 06:45 5.98 333 1370 (1994) 72 (1995) 326 74 91 125 143 241 441 544 689 1120
2020-02-23 05:45 6.00 347 1370 (1994) 72 (1995) 326 74 91 125 143 241 441 544 689 1120
2020-02-23 04:45 6.03 369 1370 (1994) 72 (1995) 326 74 91 125 143 241 441 544 689 1120
2020-02-23 03:45 6.03 369 1370 (1994) 72 (1995) 326 74 91 125 143 241 441 544 689 1120
2020-02-23 02:45 6.03 369 1370 (1994) 72 (1995) 326 74 91 125 143 241 441 544 689 1120
2020-02-23 01:45 6.02 362 1370 (1994) 72 (1995) 326 74 91 125 143 241 441 544 689 1120
2020-02-23 00:45 6.02 362 1370 (1994) 72 (1995) 326 74 91 125 143 241 441 544 689 1120
2020-02-22 23:45 6.04 377 2740 (1994) 75 (1995) 404 79 98 123 128 234 522 592 886 1840
2020-02-22 22:45 6.03 369 2740 (1994) 75 (1995) 404 79 98 123 128 234 522 592 886 1840
2020-02-22 21:45 6.04 377 2740 (1994) 75 (1995) 404 79 98 123 128 234 522 592 886 1840
2020-02-22 20:45 6.05 385 2740 (1994) 75 (1995) 404 79 98 123 128 234 522 592 886 1840
2020-02-22 19:45 6.03 369 2740 (1994) 75 (1995) 404 79 98 123 128 234 522 592 886 1840
2020-02-22 18:45 6.05 385 2740 (1994) 75 (1995) 404 79 98 123 128 234 522 592 886 1840
2020-02-22 17:45 6.10 425 2740 (1994) 75 (1995) 404 79 98 123 128 234 522 592 886 1840
2020-02-22 16:45 6.10 425 2740 (1994) 75 (1995) 404 79 98 123 128 234 522 592 886 1840
2020-02-22 15:45 6.07 400 2740 (1994) 75 (1995) 404 79 98 123 128 234 522 592 886 1840
2020-02-22 14:45 6.13 450 2740 (1994) 75 (1995) 404 79 98 123 128 234 522 592 886 1840
2020-02-22 13:45 6.15 467 2740 (1994) 75 (1995) 404 79 98 123 128 234 522 592 886 1840
2020-02-22 12:45 6.13 450 2740 (1994) 75 (1995) 404 79 98 123 128 234 522 592 886 1840
2020-02-22 11:45 6.13 450 2740 (1994) 75 (1995) 404 79 98 123 128 234 522 592 886 1840
2020-02-22 10:45 6.13 450 2740 (1994) 75 (1995) 404 79 98 123 128 234 522 592 886 1840
2020-02-22 09:45 6.17 485 2740 (1994) 75 (1995) 404 79 98 123 128 234 522 592 886 1840
2020-02-22 08:45 6.15 467 2740 (1994) 75 (1995) 404 79 98 123 128 234 522 592 886 1840
2020-02-22 07:45 6.19 503 2740 (1994) 75 (1995) 404 79 98 123 128 234 522 592 886 1840
2020-02-22 06:45 6.18 494 2740 (1994) 75 (1995) 404 79 98 123 128 234 522 592 886 1840
2020-02-22 05:45 6.18 494 2740 (1994) 75 (1995) 404 79 98 123 128 234 522 592 886 1840
2020-02-22 04:45 6.23 541 2740 (1994) 75 (1995) 404 79 98 123 128 234 522 592 886 1840
2020-02-22 03:45 6.21 522 2740 (1994) 75 (1995) 404 79 98 123 128 234 522 592 886 1840
2020-02-22 02:45 6.24 551 2740 (1994) 75 (1995) 404 79 98 123 128 234 522 592 886 1840
2020-02-22 01:45 6.27 581 2740 (1994) 75 (1995) 404 79 98 123 128 234 522 592 886 1840
2020-02-22 00:45 6.24 551 2740 (1994) 75 (1995) 404 79 98 123 128 234 522 592 886 1840
2020-02-21 23:45 6.25 561 1960 (1997) 78 (1995) 328 86 101 118 127 214 352 468 595 1480
2020-02-21 22:45 6.27 581 1960 (1997) 78 (1995) 328 86 101 118 127 214 352 468 595 1480
2020-02-21 21:45 6.24 551 1960 (1997) 78 (1995) 328 86 101 118 127 214 352 468 595 1480
2020-02-21 20:45 6.32 633 1960 (1997) 78 (1995) 328 86 101 118 127 214 352 468 595 1480
2020-02-21 19:45 6.28 591 1960 (1997) 78 (1995) 328 86 101 118 127 214 352 468 595 1480
2020-02-21 18:45 6.30 612 1960 (1997) 78 (1995) 328 86 101 118 127 214 352 468 595 1480
2020-02-21 17:45 6.35 660 1960 (1997) 78 (1995) 328 86 101 118 127 214 352 468 595 1480
2020-02-21 16:45 6.33 642 1960 (1997) 78 (1995) 328 86 101 118 127 214 352 468 595 1480
2020-02-21 15:45 6.31 622 1960 (1997) 78 (1995) 328 86 101 118 127 214 352 468 595 1480
2020-02-21 14:45 6.35 660 1960 (1997) 78 (1995) 328 86 101 118 127 214 352 468 595 1480
2020-02-21 13:45 6.32 633 1960 (1997) 78 (1995) 328 86 101 118 127 214 352 468 595 1480
2020-02-21 12:45 6.36 669 1960 (1997) 78 (1995) 328 86 101 118 127 214 352 468 595 1480
2020-02-21 11:45 6.29 601 1960 (1997) 78 (1995) 328 86 101 118 127 214 352 468 595 1480
2020-02-21 10:45 6.31 622 1960 (1997) 78 (1995) 328 86 101 118 127 214 352 468 595 1480
2020-02-21 09:45 6.32 633 1960 (1997) 78 (1995) 328 86 101 118 127 214 352 468 595 1480
2020-02-21 08:45 6.28 591 1960 (1997) 78 (1995) 328 86 101 118 127 214 352 468 595 1480
2020-02-21 07:45 6.28 591 1960 (1997) 78 (1995) 328 86 101 118 127 214 352 468 595 1480
2020-02-21 06:45 6.31 622 1960 (1997) 78 (1995) 328 86 101 118 127 214 352 468 595 1480
2020-02-21 05:45 6.26 571 1960 (1997) 78 (1995) 328 86 101 118 127 214 352 468 595 1480
2020-02-21 04:45 6.31 622 1960 (1997) 78 (1995) 328 86 101 118 127 214 352 468 595 1480
2020-02-21 03:45 6.31 622 1960 (1997) 78 (1995) 328 86 101 118 127 214 352 468 595 1480
2020-02-21 02:45 6.30 612 1960 (1997) 78 (1995) 328 86 101 118 127 214 352 468 595 1480
2020-02-21 01:45 6.32 633 1960 (1997) 78 (1995) 328 86 101 118 127 214 352 468 595 1480
2020-02-21 00:45 6.32 633 1960 (1997) 78 (1995) 328 86 101 118 127 214 352 468 595 1480
2020-02-20 23:45 6.36 669 647 (1994) 82 (1995) 245 91 103 131 144 211 334 366 451 599
2020-02-20 22:45 6.35 660 647 (1994) 82 (1995) 245 91 103 131 144 211 334 366 451 599
2020-02-20 21:45 6.34 651 647 (1994) 82 (1995) 245 91 103 131 144 211 334 366 451 599
2020-02-20 20:45 6.36 669 647 (1994) 82 (1995) 245 91 103 131 144 211 334 366 451 599
2020-02-20 19:45 6.32 633 647 (1994) 82 (1995) 245 91 103 131 144 211 334 366 451 599
2020-02-20 18:45 6.38 687 647 (1994) 82 (1995) 245 91 103 131 144 211 334 366 451 599
2020-02-20 17:45 6.33 642 647 (1994) 82 (1995) 245 91 103 131 144 211 334 366 451 599
2020-02-20 16:45 6.37 678 647 (1994) 82 (1995) 245 91 103 131 144 211 334 366 451 599
2020-02-20 15:45 6.39 697 647 (1994) 82 (1995) 245 91 103 131 144 211 334 366 451 599
2020-02-20 14:45 6.43 735 647 (1994) 82 (1995) 245 91 103 131 144 211 334 366 451 599
2020-02-20 13:45 6.57 854 647 (1994) 82 (1995) 245 91 103 131 144 211 334 366 451 599
2020-02-20 12:45 6.58 863 647 (1994) 82 (1995) 245 91 103 131 144 211 334 366 451 599
2020-02-20 11:45 6.56 846 647 (1994) 82 (1995) 245 91 103 131 144 211 334 366 451 599
2020-02-20 10:45 6.64 905 647 (1994) 82 (1995) 245 91 103 131 144 211 334 366 451 599
2020-02-20 09:45 6.62 893 647 (1994) 82 (1995) 245 91 103 131 144 211 334 366 451 599
2020-02-20 08:45 6.63 899 647 (1994) 82 (1995) 245 91 103 131 144 211 334 366 451 599
2020-02-20 07:45 6.70 944 647 (1994) 82 (1995) 245 91 103 131 144 211 334 366 451 599
2020-02-20 06:45 6.63 899 647 (1994) 82 (1995) 245 91 103 131 144 211 334 366 451 599
2020-02-20 05:45 6.68 931 647 (1994) 82 (1995) 245 91 103 131 144 211 334 366 451 599
2020-02-20 04:45 6.63 899 647 (1994) 82 (1995) 245 91 103 131 144 211 334 366 451 599
2020-02-20 03:45 6.65 912 647 (1994) 82 (1995) 245 91 103 131 144 211 334 366 451 599
2020-02-20 02:45 6.72 954 647 (1994) 82 (1995) 245 91 103 131 144 211 334 366 451 599
2020-02-20 01:45 6.62 893 647 (1994) 82 (1995) 245 91 103 131 144 211 334 366 451 599
2020-02-20 00:45 6.72 954 647 (1994) 82 (1995) 245 91 103 131 144 211 334 366 451 599
2020-02-19 23:45 6.77 979 589 (2001) 87 (1995) 242 92 105 117 147 225 292 309 517 582
2020-02-19 22:45 6.77 979 589 (2001) 87 (1995) 242 92 105 117 147 225 292 309 517 582
2020-02-19 21:45 6.84 1010 589 (2001) 87 (1995) 242 92 105 117 147 225 292 309 517 582
2020-02-19 20:45 6.85 1010 589 (2001) 87 (1995) 242 92 105 117 147 225 292 309 517 582
2020-02-19 19:45 6.87 1020 589 (2001) 87 (1995) 242 92 105 117 147 225 292 309 517 582
2020-02-19 18:45 6.89 1030 589 (2001) 87 (1995) 242 92 105 117 147 225 292 309 517 582
2020-02-19 17:45 6.94 1040 589 (2001) 87 (1995) 242 92 105 117 147 225 292 309 517 582
2020-02-19 16:45 6.95 1050 589 (2001) 87 (1995) 242 92 105 117 147 225 292 309 517 582
2020-02-19 15:45 6.95 1050 589 (2001) 87 (1995) 242 92 105 117 147 225 292 309 517 582
2020-02-19 14:45 6.91 1030 589 (2001) 87 (1995) 242 92 105 117 147 225 292 309 517 582
2020-02-19 13:45 6.94 1040 589 (2001) 87 (1995) 242 92 105 117 147 225 292 309 517 582
2020-02-19 12:45 6.96 1050 589 (2001) 87 (1995) 242 92 105 117 147 225 292 309 517 582
2020-02-19 11:45 7.08 1090 589 (2001) 87 (1995) 242 92 105 117 147 225 292 309 517 582
2020-02-19 10:45 7.14 1110 589 (2001) 87 (1995) 242 92 105 117 147 225 292 309 517 582
2020-02-19 09:45 7.09 1100 589 (2001) 87 (1995) 242 92 105 117 147 225 292 309 517 582
2020-02-19 08:45 7.10 1100 589 (2001) 87 (1995) 242 92 105 117 147 225 292 309 517 582
2020-02-19 07:45 7.10 1100 589 (2001) 87 (1995) 242 92 105 117 147 225 292 309 517 582
2020-02-19 06:45 7.13 1110 589 (2001) 87 (1995) 242 92 105 117 147 225 292 309 517 582
2020-02-19 05:45 7.22 1140 589 (2001) 87 (1995) 242 92 105 117 147 225 292 309 517 582
2020-02-19 04:45 7.28 1160 589 (2001) 87 (1995) 242 92 105 117 147 225 292 309 517 582
2020-02-19 03:45 7.38 1190 589 (2001) 87 (1995) 242 92 105 117 147 225 292 309 517 582
2020-02-19 02:45 7.42 1210 589 (2001) 87 (1995) 242 92 105 117 147 225 292 309 517 582
2020-02-19 01:45 7.44 1210 589 (2001) 87 (1995) 242 92 105 117 147 225 292 309 517 582
2020-02-19 00:45 7.47 1220 589 (2001) 87 (1995) 242 92 105 117 147 225 292 309 517 582
2020-02-18 23:45 7.51 1240 1060 (1989) 57 (1996) 286 73 98 113 123 174 289 327 959 1010
2020-02-18 22:45 7.68 1290 1060 (1989) 57 (1996) 286 73 98 113 123 174 289 327 959 1010
2020-02-18 21:45 7.70 1300 1060 (1989) 57 (1996) 286 73 98 113 123 174 289 327 959 1010
2020-02-18 20:45 7.88 1360 1060 (1989) 57 (1996) 286 73 98 113 123 174 289 327 959 1010
2020-02-18 19:45 7.89 1360 1060 (1989) 57 (1996) 286 73 98 113 123 174 289 327 959 1010
2020-02-18 18:45 7.99 1390 1060 (1989) 57 (1996) 286 73 98 113 123 174 289 327 959 1010
2020-02-18 17:45 7.75 1320 1060 (1989) 57 (1996) 286 73 98 113 123 174 289 327 959 1010
2020-02-18 16:45 7.33 1180 1060 (1989) 57 (1996) 286 73 98 113 123 174 289 327 959 1010
2020-02-18 15:45 7.09 1100 1060 (1989) 57 (1996) 286 73 98 113 123 174 289 327 959 1010
2020-02-18 14:45 6.88 1020 1060 (1989) 57 (1996) 286 73 98 113 123 174 289 327 959 1010
2020-02-18 13:45 6.81 996 1060 (1989) 57 (1996) 286 73 98 113 123 174 289 327 959 1010
2020-02-18 12:45 6.53 820 1060 (1989) 57 (1996) 286 73 98 113 123 174 289 327 959 1010
2020-02-18 11:45 6.54 829 1060 (1989) 57 (1996) 286 73 98 113 123 174 289 327 959 1010
2020-02-18 10:45 6.57 854 1060 (1989) 57 (1996) 286 73 98 113 123 174 289 327 959 1010
2020-02-18 09:45 6.56 846 1060 (1989) 57 (1996) 286 73 98 113 123 174 289 327 959 1010
2020-02-18 08:45 6.57 854 1060 (1989) 57 (1996) 286 73 98 113 123 174 289 327 959 1010
2020-02-18 07:45 6.28 591 1060 (1989) 57 (1996) 286 73 98 113 123 174 289 327 959 1010
2020-02-18 06:45 6.25 561 1060 (1989) 57 (1996) 286 73 98 113 123 174 289 327 959 1010
2020-02-18 05:45 6.30 612 1060 (1989) 57 (1996) 286 73 98 113 123 174 289 327 959 1010
2020-02-18 04:45 5.99 340 1060 (1989) 57 (1996) 286 73 98 113 123 174 289 327 959 1010
2020-02-18 03:45 5.95 318 1060 (1989) 57 (1996) 286 73 98 113 123 174 289 327 959 1010
2020-02-18 02:45 5.83 279 1060 (1989) 57 (1996) 286 73 98 113 123 174 289 327 959 1010
2020-02-18 01:45 5.84 282 1060 (1989) 57 (1996) 286 73 98 113 123 174 289 327 959 1010
2020-02-18 00:45 5.83 279 1060 (1989) 57 (1996) 286 73 98 113 123 174 289 327 959 1010

A total of 191 rows are displayed for years 1989 through 2017.